createdAt,value
2022-08-28T00:01:30.319Z,10.00
2022-08-28T00:04:00.910Z,8.27
2022-08-28T00:06:30.467Z,9.80
2022-08-28T00:08:59.895Z,8.40
2022-08-28T00:11:31.946Z,10.20
2022-08-28T00:14:02.940Z,9.65
2022-08-28T00:16:32.733Z,8.48
2022-08-28T00:19:02.321Z,8.75
2022-08-28T00:21:32.253Z,9.52
2022-08-28T00:24:01.821Z,8.88
2022-08-28T00:26:46.401Z,7.38
2022-08-28T00:29:15.834Z,7.75
2022-08-28T00:31:45.534Z,9.65
2022-08-28T00:34:15.042Z,9.02
2022-08-28T00:36:44.487Z,9.68
2022-08-28T00:39:13.937Z,9.38
2022-08-28T00:41:50.354Z,9.77
2022-08-28T00:44:27.369Z,7.95
2022-08-28T00:46:57.657Z,9.45
2022-08-28T00:49:29.025Z,9.20
2022-08-28T00:52:11.784Z,8.50
2022-08-28T00:54:59.683Z,8.82
2022-08-28T00:57:33.795Z,8.30
2022-08-28T01:00:03.262Z,9.18
2022-08-28T01:02:32.778Z,9.73
2022-08-28T01:05:02.252Z,9.02
2022-08-28T01:07:31.806Z,9.05
2022-08-28T01:10:01.250Z,7.68
2022-08-28T01:12:33.322Z,8.52
2022-08-28T01:15:03.746Z,9.23
2022-08-28T01:17:35.177Z,9.43
2022-08-28T01:20:09.338Z,6.95
2022-08-28T01:22:40.467Z,8.65
2022-08-28T01:25:13.937Z,8.15
2022-08-28T01:27:44.106Z,7.22
2022-08-28T01:30:15.444Z,9.43
2022-08-28T01:32:47.272Z,10.45
2022-08-28T01:35:18.293Z,7.53
2022-08-28T01:40:23.111Z,6.63
2022-08-28T01:42:52.952Z,7.97
2022-08-28T01:45:22.994Z,7.55
2022-08-28T01:47:52.487Z,7.23
2022-08-28T01:50:23.054Z,9.60
2022-08-28T01:52:52.501Z,7.22
2022-08-28T01:55:24.526Z,8.93
2022-08-28T01:57:56.525Z,7.82
2022-08-28T02:00:27.647Z,7.03
2022-08-28T02:02:58.373Z,8.07
2022-08-28T02:05:28.407Z,9.93
2022-08-28T02:07:57.837Z,7.90
2022-08-28T02:10:31.102Z,7.00
2022-08-28T02:13:00.848Z,6.93
2022-08-28T02:15:31.033Z,8.50
2022-08-28T02:18:00.566Z,8.32
2022-08-28T02:20:30.479Z,7.53
2022-08-28T02:23:00.438Z,7.72
2022-08-28T02:25:32.615Z,6.35
2022-08-28T02:28:02.077Z,6.93
2022-08-28T02:30:31.643Z,6.55
2022-08-28T02:33:01.249Z,7.50
2022-08-28T02:35:31.305Z,7.28
2022-08-28T02:38:01.093Z,7.10
2022-08-28T02:40:33.234Z,7.10
2022-08-28T02:43:02.884Z,6.70
2022-08-28T02:45:32.768Z,8.20
2022-08-28T02:48:02.223Z,9.43
2022-08-28T02:50:32.538Z,10.88
2022-08-28T02:53:02.035Z,7.50
2022-08-28T02:55:34.433Z,9.27
2022-08-28T02:58:03.865Z,9.32
2022-08-28T03:00:33.909Z,8.45
2022-08-28T03:03:03.728Z,7.43
2022-08-28T03:05:33.196Z,8.25
2022-08-28T03:08:02.752Z,7.60
2022-08-28T03:10:35.162Z,8.82
2022-08-28T03:13:04.657Z,7.03
2022-08-28T03:15:34.344Z,8.52
2022-08-28T03:18:07.903Z,7.80
2022-08-28T03:20:37.745Z,7.07
2022-08-28T03:23:21.945Z,8.35
2022-08-28T03:25:54.043Z,7.13
2022-08-28T03:28:23.488Z,8.10
2022-08-28T03:30:53.304Z,7.75
2022-08-28T03:33:22.820Z,6.70
2022-08-28T03:35:52.376Z,8.02
2022-08-28T03:38:22.267Z,7.00
2022-08-28T03:40:57.610Z,8.82
2022-08-28T03:43:27.430Z,8.10
2022-08-28T03:45:58.231Z,6.00
2022-08-28T03:48:28.577Z,10.18
2022-08-28T03:50:58.085Z,7.32
2022-08-28T03:53:29.109Z,7.65
2022-08-28T03:58:30.536Z,7.93
2022-08-28T04:01:00.396Z,6.72
2022-08-28T04:03:30.036Z,6.47
2022-08-28T04:05:59.509Z,8.40
2022-08-28T04:08:29.371Z,7.95
2022-08-28T04:11:01.722Z,8.85
2022-08-28T04:13:32.173Z,8.88
2022-08-28T04:16:02.589Z,8.40
2022-08-28T04:18:36.069Z,8.55
2022-08-28T04:21:08.007Z,7.68
2022-08-28T04:23:38.343Z,8.98
2022-08-28T04:26:10.466Z,7.75
2022-08-28T04:28:39.997Z,7.30
2022-08-28T04:31:10.391Z,9.07
2022-08-28T04:33:39.935Z,6.47
2022-08-28T04:36:11.184Z,9.13
2022-08-28T04:38:43.932Z,10.75
2022-08-28T04:41:18.855Z,7.20
2022-08-28T04:43:48.663Z,6.10
2022-08-28T04:46:18.240Z,8.43
2022-08-28T04:48:47.724Z,7.03
2022-08-28T04:51:17.694Z,7.88
2022-08-28T04:53:47.202Z,4.60
2022-08-28T04:56:22.090Z,6.07
2022-08-28T04:58:51.540Z,6.28
2022-08-28T05:01:24.307Z,7.32
2022-08-28T05:03:57.617Z,7.05
2022-08-28T05:06:28.806Z,6.30
2022-08-28T05:08:58.895Z,9.82
2022-08-28T05:11:34.156Z,6.53
2022-08-28T05:14:04.639Z,5.97
2022-08-28T05:16:34.812Z,7.40
2022-08-28T05:19:04.517Z,8.40
2022-08-28T05:21:33.963Z,6.13
2022-08-28T05:24:03.409Z,5.90
2022-08-28T05:26:35.476Z,9.00
2022-08-28T05:29:08.466Z,7.10
2022-08-28T05:31:39.115Z,9.60
2022-08-28T05:34:10.397Z,8.48
2022-08-28T05:36:40.418Z,6.63
2022-08-28T05:39:12.049Z,6.95
2022-08-28T05:41:45.870Z,6.57
2022-08-28T05:44:16.636Z,9.60
2022-08-28T05:46:48.112Z,6.88
2022-08-28T05:49:17.911Z,8.73
2022-08-28T05:51:47.490Z,6.75
2022-08-28T05:54:17.630Z,5.40
2022-08-28T05:56:49.633Z,7.03
2022-08-28T05:59:19.183Z,7.95
2022-08-28T06:01:49.868Z,5.70
2022-08-28T06:04:23.562Z,7.50
2022-08-28T06:06:53.126Z,6.30
2022-08-28T06:09:28.736Z,9.18
2022-08-28T06:12:03.727Z,7.88
2022-08-28T06:14:33.505Z,5.53
2022-08-28T06:17:04.034Z,6.90
2022-08-28T06:19:37.240Z,4.72
2022-08-28T06:22:09.724Z,6.25
2022-08-28T06:24:39.793Z,7.25
2022-08-28T06:27:11.794Z,9.17
2022-08-28T06:29:41.479Z,5.70
2022-08-28T06:32:10.964Z,7.43
2022-08-28T06:34:40.409Z,5.95
2022-08-28T06:37:10.313Z,6.63
2022-08-28T06:39:39.933Z,7.80
2022-08-28T06:42:11.954Z,6.88
2022-08-28T06:44:41.404Z,6.97
2022-08-28T06:47:11.189Z,5.13
2022-08-28T06:49:41.537Z,7.32
2022-08-28T06:52:10.939Z,7.85
2022-08-28T06:54:40.361Z,5.53
2022-08-28T06:57:17.812Z,7.45
2022-08-28T06:59:47.678Z,7.28
2022-08-28T07:02:17.197Z,5.72
2022-08-28T07:04:46.729Z,5.95
2022-08-28T07:07:31.046Z,7.72
2022-08-28T07:10:01.769Z,5.55
2022-08-28T07:12:33.756Z,7.97
2022-08-28T07:15:04.162Z,7.25
2022-08-28T07:17:41.751Z,7.00
2022-08-28T07:20:12.497Z,4.38
2022-08-28T07:22:42.715Z,6.22
2022-08-28T07:25:12.690Z,5.07
2022-08-28T07:27:44.695Z,6.00
2022-08-28T07:30:15.012Z,6.65
2022-08-28T07:32:49.170Z,6.70
2022-08-28T07:35:19.156Z,7.40
2022-08-28T07:37:49.123Z,6.23
2022-08-28T07:40:20.237Z,6.73
2022-08-28T07:43:04.784Z,5.93
2022-08-28T07:45:34.688Z,8.15
2022-08-28T07:48:11.441Z,5.05
2022-08-28T07:50:41.455Z,6.93
2022-08-28T07:53:11.145Z,5.47
2022-08-28T07:55:40.588Z,4.85
2022-08-28T07:58:12.876Z,5.38
2022-08-28T08:00:42.452Z,7.55
2022-08-28T08:03:11.939Z,5.30
2022-08-28T08:05:41.432Z,8.60
2022-08-28T08:08:10.850Z,6.30
2022-08-28T08:10:40.294Z,7.72
2022-08-28T08:13:14.205Z,5.30
2022-08-28T08:15:43.726Z,9.93
2022-08-28T08:18:13.680Z,4.30
2022-08-28T08:20:43.256Z,4.68
2022-08-28T08:23:12.664Z,6.00
2022-08-28T08:25:42.137Z,5.68
2022-08-28T08:28:15.673Z,6.63
2022-08-28T08:30:45.241Z,4.78
2022-08-28T08:33:14.734Z,5.30
2022-08-28T08:35:44.436Z,6.70
2022-08-28T08:38:14.024Z,6.40
2022-08-28T08:40:43.646Z,5.22
2022-08-28T08:43:16.069Z,6.05
2022-08-28T08:45:45.759Z,6.43
2022-08-28T08:48:15.352Z,6.50
2022-08-28T08:50:44.948Z,6.90
2022-08-28T08:53:24.220Z,7.18
2022-08-28T08:55:54.356Z,5.00
2022-08-28T08:58:28.333Z,6.15
2022-08-28T09:01:01.372Z,6.82
2022-08-28T09:03:44.126Z,5.68
2022-08-28T09:06:18.744Z,5.20
2022-08-28T09:08:50.289Z,4.38
2022-08-28T09:11:26.421Z,5.30
2022-08-28T09:14:02.666Z,6.10
2022-08-28T09:16:33.812Z,4.50
2022-08-28T09:19:03.216Z,5.80
2022-08-28T09:21:33.736Z,6.38
2022-08-28T09:24:05.860Z,6.45
2022-08-28T09:26:40.369Z,7.22
2022-08-28T09:29:29.443Z,5.90
2022-08-28T09:31:58.900Z,3.50
2022-08-28T09:34:35.460Z,5.57
2022-08-28T09:37:08.353Z,4.35
2022-08-28T09:39:38.548Z,5.57
2022-08-28T09:42:29.893Z,3.80
2022-08-28T09:45:09.060Z,4.43
2022-08-28T09:47:48.787Z,4.00
2022-08-28T09:50:23.556Z,5.15
2022-08-28T09:52:53.160Z,5.43
2022-08-28T09:55:24.496Z,4.82
2022-08-28T09:57:54.442Z,6.00
2022-08-28T10:00:26.621Z,4.63
2022-08-28T10:02:58.717Z,6.15
2022-08-28T10:05:36.217Z,6.63
2022-08-28T10:08:08.094Z,6.45
2022-08-28T10:10:39.420Z,5.90
2022-08-28T10:13:11.879Z,4.85
2022-08-28T10:15:55.506Z,5.38
2022-08-28T10:18:34.119Z,5.68
2022-08-28T10:21:07.025Z,4.40
2022-08-28T10:23:41.497Z,5.00
2022-08-28T10:26:21.490Z,6.63
2022-08-28T10:28:56.623Z,5.18
2022-08-28T10:31:32.839Z,5.55
2022-08-28T10:34:12.197Z,4.80
2022-08-28T10:36:41.654Z,5.80
2022-08-28T10:39:18.759Z,3.55
2022-08-28T10:41:49.529Z,4.38
2022-08-28T10:46:55.616Z,4.80
2022-08-28T10:49:27.616Z,5.47
2022-08-28T10:51:58.028Z,4.05
2022-08-28T10:54:31.200Z,5.80
2022-08-28T10:57:02.900Z,4.53
2022-08-28T10:59:42.065Z,5.53
2022-08-28T11:02:14.579Z,6.93
2022-08-28T11:04:44.044Z,6.90
2022-08-28T11:07:15.428Z,6.63
2022-08-28T11:09:47.799Z,4.95
2022-08-28T11:12:39.088Z,4.78
2022-08-28T11:15:38.543Z,5.68
2022-08-28T11:18:37.928Z,4.82
2022-08-28T11:21:09.790Z,5.72
2022-08-28T11:23:41.164Z,4.93
2022-08-28T11:26:12.445Z,4.88
2022-08-28T11:28:47.439Z,7.57
2022-08-28T11:31:38.062Z,6.40
2022-08-28T11:34:10.117Z,5.82
2022-08-28T11:37:04.409Z,6.18
2022-08-28T11:39:33.878Z,4.93
2022-08-28T11:42:32.878Z,4.45
2022-08-28T11:45:02.715Z,6.28
2022-08-28T11:47:52.142Z,5.30
2022-08-28T11:50:27.309Z,4.80
2022-08-28T11:53:22.224Z,4.00
2022-08-28T11:56:31.024Z,4.40
2022-08-28T11:59:07.968Z,4.25
2022-08-28T12:01:40.357Z,4.28
2022-08-28T12:04:12.346Z,4.90
2022-08-28T12:06:52.003Z,3.92
2022-08-28T12:09:40.416Z,5.90
2022-08-28T12:12:28.754Z,4.30
2022-08-28T12:15:02.184Z,4.22
2022-08-28T12:17:43.840Z,6.22
2022-08-28T12:20:14.522Z,4.78
2022-08-28T12:25:24.661Z,5.05
2022-08-28T12:27:54.340Z,5.55
2022-08-28T12:30:32.092Z,4.97
2022-08-28T12:33:06.186Z,3.83
2022-08-28T12:35:35.656Z,3.30
2022-08-28T12:38:09.339Z,4.03
2022-08-28T12:40:51.182Z,4.90
2022-08-28T12:43:31.093Z,4.95
2022-08-28T12:46:01.611Z,5.55
2022-08-28T12:51:03.417Z,5.65
2022-08-28T12:53:42.739Z,5.13
2022-08-28T12:56:13.131Z,6.18
2022-08-28T12:58:43.057Z,4.85
2022-08-28T13:01:13.653Z,5.05
2022-08-28T13:03:51.505Z,4.95
2022-08-28T13:06:26.243Z,5.32
2022-08-28T13:09:02.507Z,5.93
2022-08-28T13:11:32.516Z,4.07
2022-08-28T13:14:02.214Z,4.38
2022-08-28T13:16:39.866Z,6.30
2022-08-28T13:19:24.065Z,5.05
2022-08-28T13:21:58.587Z,3.58
2022-08-28T13:24:41.113Z,4.85
2022-08-28T13:27:19.057Z,4.63
2022-08-28T13:30:05.428Z,4.13
2022-08-28T13:32:36.157Z,8.00
2022-08-28T13:37:47.748Z,7.03
2022-08-28T13:43:12.074Z,5.65
2022-08-28T13:45:44.285Z,3.60
2022-08-28T13:48:14.497Z,6.68
2022-08-28T13:50:46.879Z,4.57
2022-08-28T13:53:16.976Z,4.43
2022-08-28T13:55:50.351Z,5.32
2022-08-28T13:58:20.018Z,4.82
2022-08-28T14:00:51.103Z,3.55
2022-08-28T14:03:33.292Z,5.72
2022-08-28T14:06:02.875Z,3.03
2022-08-28T14:08:32.347Z,3.47
2022-08-28T14:11:04.436Z,5.00
2022-08-28T14:13:33.969Z,4.43
2022-08-28T14:16:06.689Z,3.67
2022-08-28T14:18:36.225Z,4.03
2022-08-28T14:21:07.616Z,5.10
2022-08-28T14:23:37.087Z,5.03
2022-08-28T14:26:09.559Z,4.20
2022-08-28T14:28:38.989Z,5.75
2022-08-28T14:31:13.693Z,4.78
2022-08-28T14:33:45.253Z,3.95
2022-08-28T14:36:17.960Z,4.20
2022-08-28T14:38:47.376Z,3.58
2022-08-28T14:41:19.781Z,4.82
2022-08-28T14:43:49.668Z,6.20
2022-08-28T14:46:19.483Z,5.13
2022-08-28T14:48:48.990Z,4.28
2022-08-28T14:51:18.529Z,6.22
2022-08-28T14:53:47.962Z,6.15
2022-08-28T14:56:20.072Z,5.18
2022-08-28T14:58:49.488Z,5.57
2022-08-28T15:01:26.048Z,5.90
2022-08-28T15:04:09.865Z,5.57
2022-08-28T15:06:39.454Z,4.13
2022-08-28T15:09:08.893Z,5.57
2022-08-28T15:11:41.176Z,5.72
2022-08-28T15:14:10.614Z,5.80
2022-08-28T15:16:43.072Z,3.85
2022-08-28T15:19:13.233Z,5.95
2022-08-28T15:21:44.535Z,5.95
2022-08-28T15:24:13.968Z,6.68
2022-08-28T15:26:46.910Z,5.55
2022-08-28T15:29:16.588Z,6.63
2022-08-28T15:31:48.073Z,7.10
2022-08-28T15:34:18.661Z,6.20
2022-08-28T15:36:52.847Z,6.95
2022-08-28T15:39:37.944Z,5.70
2022-08-28T15:42:10.412Z,7.57
2022-08-28T15:44:39.853Z,7.15
2022-08-28T15:47:09.860Z,6.38
2022-08-28T15:49:48.648Z,6.57
2022-08-28T15:52:19.882Z,6.45
2022-08-28T15:54:49.599Z,6.80
2022-08-28T15:57:21.617Z,7.67
2022-08-28T15:59:51.365Z,9.35
2022-08-28T16:02:21.634Z,7.93
2022-08-28T16:04:51.189Z,7.30
2022-08-28T16:07:20.736Z,8.32
2022-08-28T16:09:50.236Z,5.90
2022-08-28T16:12:22.953Z,6.53
2022-08-28T16:14:52.673Z,6.30
2022-08-28T16:17:22.108Z,7.45
2022-08-28T16:19:51.508Z,5.70
2022-08-28T16:22:20.936Z,8.80
2022-08-28T16:24:50.781Z,7.80
2022-08-28T16:27:22.788Z,7.20
2022-08-28T16:29:52.753Z,6.80
2022-08-28T16:32:23.037Z,6.95
2022-08-28T16:34:52.809Z,5.60
2022-08-28T16:37:23.202Z,5.88
2022-08-28T16:39:56.050Z,6.90
2022-08-28T16:42:32.664Z,7.80
2022-08-28T16:45:03.513Z,6.63
2022-08-28T16:50:02.861Z,6.03
2022-08-28T16:52:32.294Z,7.37
2022-08-28T16:55:02.414Z,6.55
2022-08-28T16:57:34.437Z,6.40
2022-08-28T17:00:03.881Z,4.93
2022-08-28T17:02:33.965Z,5.45
2022-08-28T17:05:05.440Z,6.00
2022-08-28T17:07:35.042Z,4.82
2022-08-28T17:10:04.534Z,6.50
2022-08-28T17:12:36.701Z,5.43
2022-08-28T17:15:06.888Z,5.85
2022-08-28T17:17:36.370Z,5.43
2022-08-28T17:20:07.819Z,5.70
2022-08-28T17:22:34.773Z,5.35
2022-08-28T17:25:04.557Z,5.15
2022-08-28T17:27:36.831Z,8.43
2022-08-28T17:30:07.200Z,4.47
2022-08-28T17:32:37.030Z,3.88
2022-08-28T17:35:07.101Z,6.87
2022-08-28T17:37:36.530Z,4.18
2022-08-28T17:40:06.539Z,4.47
2022-08-28T17:42:38.892Z,5.00
2022-08-28T17:45:11.337Z,5.00
2022-08-28T17:50:11.027Z,6.18
2022-08-28T17:52:40.604Z,4.95
2022-08-28T17:55:10.757Z,5.22
2022-08-28T17:57:42.769Z,6.15
2022-08-28T18:00:16.171Z,4.50
2022-08-28T18:02:46.308Z,3.78
2022-08-28T18:05:16.737Z,5.22
2022-08-28T18:07:46.197Z,4.65
2022-08-28T18:10:15.680Z,5.60
2022-08-28T18:12:47.853Z,4.85
2022-08-28T18:15:17.468Z,10.55
2022-08-28T18:17:50.470Z,4.10
2022-08-28T18:20:20.217Z,6.10
2022-08-28T18:22:49.742Z,5.35
2022-08-28T18:25:31.490Z,6.65
2022-08-28T18:28:03.575Z,4.22
2022-08-28T18:30:32.995Z,5.20
2022-08-28T18:33:02.521Z,3.28
2022-08-28T18:35:32.462Z,3.92
2022-08-28T18:38:02.007Z,4.20
2022-08-28T18:40:31.563Z,4.90
2022-08-28T18:43:03.749Z,6.55
2022-08-28T18:45:34.157Z,5.18
2022-08-28T18:48:03.918Z,4.20
2022-08-28T18:50:33.616Z,3.63
2022-08-28T18:53:03.723Z,5.97
2022-08-28T18:55:33.421Z,3.63
2022-08-28T18:58:05.464Z,3.65
2022-08-28T19:00:36.680Z,4.90
2022-08-28T19:03:06.327Z,3.85
2022-08-28T19:05:35.886Z,4.05
2022-08-28T19:08:05.422Z,3.63
2022-08-28T19:10:35.354Z,5.90
2022-08-28T19:13:07.652Z,4.67
2022-08-28T19:15:37.378Z,4.57
2022-08-28T19:18:07.230Z,3.38
2022-08-28T19:20:36.800Z,5.93
2022-08-28T19:23:06.254Z,4.63
2022-08-28T19:25:35.957Z,4.22
2022-08-28T19:28:08.040Z,4.72
2022-08-28T19:30:37.608Z,2.40
2022-08-28T19:33:07.490Z,3.67
2022-08-28T19:35:36.953Z,4.95
2022-08-28T19:38:06.360Z,5.32
2022-08-28T19:40:38.823Z,3.25
2022-08-28T19:43:12.645Z,5.03
2022-08-28T19:45:46.792Z,4.60
2022-08-28T19:48:16.245Z,5.27
2022-08-28T19:50:45.669Z,4.57
2022-08-28T19:53:15.449Z,3.90
2022-08-28T19:55:44.859Z,5.50
2022-08-28T19:58:16.875Z,5.30
2022-08-28T20:00:46.313Z,5.03
2022-08-28T20:03:16.312Z,3.97
2022-08-28T20:05:48.601Z,5.63
2022-08-28T20:08:19.805Z,5.75
2022-08-28T20:10:49.282Z,4.65
2022-08-28T20:13:21.308Z,3.38
2022-08-28T20:15:51.724Z,3.40
2022-08-28T20:18:23.931Z,3.97
2022-08-28T20:20:53.792Z,3.13
2022-08-28T20:23:23.957Z,3.28
2022-08-28T20:25:53.555Z,3.75
2022-08-28T20:28:25.572Z,6.22
2022-08-28T20:30:55.056Z,4.47
2022-08-28T20:33:24.536Z,4.78
2022-08-28T20:36:02.263Z,3.70
2022-08-28T20:38:32.375Z,4.97
2022-08-28T20:41:06.504Z,5.15
2022-08-28T20:43:38.798Z,5.20
2022-08-28T20:46:08.595Z,3.53
2022-08-28T20:48:38.182Z,5.00
2022-08-28T20:51:07.888Z,6.18
2022-08-28T20:53:38.115Z,3.85
2022-08-28T20:56:09.930Z,4.22
2022-08-28T20:58:41.971Z,5.10
2022-08-28T21:01:11.441Z,3.70
2022-08-28T21:03:41.014Z,3.88
2022-08-28T21:06:10.700Z,4.30
2022-08-28T21:08:40.173Z,5.45
2022-08-28T21:11:09.647Z,4.82
2022-08-28T21:13:41.698Z,5.03
2022-08-28T21:16:11.821Z,4.25
2022-08-28T21:18:53.838Z,7.28
2022-08-28T21:21:31.171Z,5.05
2022-08-28T21:24:01.803Z,4.85
2022-08-28T21:26:31.232Z,3.65
2022-08-28T21:29:03.281Z,2.53
2022-08-28T21:31:32.692Z,5.05
2022-08-28T21:34:03.497Z,4.20
2022-08-28T21:36:33.054Z,4.65
2022-08-28T21:39:02.511Z,4.65
2022-08-28T21:41:32.023Z,4.03
2022-08-28T21:44:04.046Z,5.97
2022-08-28T21:46:33.516Z,4.15
2022-08-28T21:49:03.047Z,4.20
2022-08-28T21:51:32.505Z,4.80
2022-08-28T21:54:02.008Z,4.03
2022-08-28T21:56:31.465Z,5.18
2022-08-28T21:59:01.198Z,2.97
2022-08-28T22:01:33.322Z,4.80
2022-08-28T22:04:02.870Z,7.18
2022-08-28T22:06:32.416Z,3.33
2022-08-28T22:09:02.310Z,6.32
2022-08-28T22:11:31.737Z,5.40
2022-08-28T22:14:01.176Z,5.05
2022-08-28T22:16:33.233Z,4.50
2022-08-28T22:19:03.886Z,4.03
2022-08-28T22:21:45.923Z,3.30
2022-08-28T22:24:16.065Z,4.47
2022-08-28T22:26:46.006Z,6.60
2022-08-28T22:29:15.461Z,3.65
2022-08-28T22:31:47.714Z,5.03
2022-08-28T22:34:17.544Z,5.70
2022-08-28T22:36:47.087Z,5.57
2022-08-28T22:39:16.561Z,3.72
2022-08-28T22:41:46.161Z,4.82
2022-08-28T22:44:15.604Z,4.32
2022-08-28T22:46:47.620Z,4.47
2022-08-28T22:49:17.077Z,5.05
2022-08-28T22:51:46.558Z,5.90
2022-08-28T22:54:16.160Z,4.60
2022-08-28T22:56:45.635Z,3.50
2022-08-28T22:59:15.078Z,5.47
2022-08-28T23:01:47.097Z,5.60
2022-08-28T23:04:16.573Z,2.88
2022-08-28T23:06:46.044Z,3.40
2022-08-28T23:09:15.478Z,5.05
2022-08-28T23:11:44.912Z,4.57
2022-08-28T23:14:14.893Z,4.25
2022-08-28T23:16:46.964Z,4.85
2022-08-28T23:19:18.931Z,4.57
2022-08-28T23:21:48.592Z,6.05
2022-08-28T23:24:18.285Z,4.93
2022-08-28T23:26:47.881Z,4.70
2022-08-28T23:29:17.533Z,5.70
2022-08-28T23:31:49.680Z,4.38
2022-08-28T23:34:19.165Z,6.20
2022-08-28T23:36:48.620Z,6.25
2022-08-28T23:39:18.129Z,3.95
2022-08-28T23:41:47.542Z,5.28
2022-08-28T23:44:17.073Z,5.03
2022-08-28T23:46:49.185Z,3.10
2022-08-28T23:49:21.594Z,4.90
2022-08-28T23:51:54.341Z,5.82
2022-08-28T23:54:23.795Z,4.25
2022-08-28T23:56:54.196Z,4.20
2022-08-28T23:59:24.862Z,5.45
